createdAt,value
2018-08-28T00:02:30.031Z,17.80
2018-08-28T00:07:34.089Z,17.80
2018-08-28T00:17:42.058Z,17.70
2018-08-28T00:22:46.164Z,17.70
2018-08-28T00:27:50.230Z,17.70
2018-08-28T00:32:54.356Z,17.70
2018-08-28T00:37:58.410Z,17.60
2018-08-28T00:43:02.570Z,17.60
2018-08-28T00:48:06.622Z,17.60
2018-08-28T00:53:10.854Z,17.50
2018-08-28T01:03:18.833Z,17.50
2018-08-28T01:13:26.769Z,17.40
2018-08-28T01:18:30.854Z,17.50
2018-08-28T01:28:38.733Z,17.40
2018-08-28T01:38:46.577Z,17.40
2018-08-28T01:43:50.721Z,17.40
2018-08-28T01:53:58.617Z,17.30
2018-08-28T01:59:02.658Z,17.20
2018-08-28T02:09:10.722Z,17.20
2018-08-28T02:14:14.758Z,17.20
2018-08-28T02:19:18.857Z,17.00
2018-08-28T02:24:22.958Z,17.00
2018-08-28T02:34:30.892Z,16.70
2018-08-28T02:39:34.933Z,16.50
2018-08-28T02:44:39.322Z,16.30
2018-08-28T02:54:47.158Z,16.00
2018-08-28T02:59:51.268Z,15.90
2018-08-28T03:04:55.326Z,15.70
2018-08-28T03:09:59.368Z,15.60
2018-08-28T03:15:03.448Z,15.50
2018-08-28T03:30:15.242Z,15.10
2018-08-28T03:35:19.319Z,15.00
2018-08-28T03:40:23.385Z,14.80
2018-08-28T03:45:27.454Z,14.80
2018-08-28T03:50:31.522Z,14.70
2018-08-28T03:55:35.722Z,14.60
2018-08-28T04:00:39.662Z,14.50
2018-08-28T04:05:43.739Z,14.40
2018-08-28T04:10:47.851Z,14.30
2018-08-28T04:15:51.918Z,14.20
2018-08-28T04:20:56.085Z,14.10
2018-08-28T04:26:00.139Z,14.00
2018-08-28T04:31:04.202Z,14.00
2018-08-28T04:36:08.327Z,14.00
2018-08-28T04:41:12.547Z,13.80
2018-08-28T04:46:16.597Z,13.80
2018-08-28T04:51:20.650Z,13.70
2018-08-28T04:56:24.720Z,13.70
2018-08-28T05:01:28.770Z,13.70
2018-08-28T05:11:36.753Z,13.70
2018-08-28T05:16:40.831Z,13.70
2018-08-28T05:21:44.927Z,13.80
2018-08-28T05:31:52.814Z,14.00
2018-08-28T05:36:56.923Z,14.10
2018-08-28T05:42:00.953Z,14.20
2018-08-28T05:47:05.213Z,14.60
2018-08-28T05:52:09.286Z,15.00
2018-08-28T05:57:13.341Z,15.60
2018-08-28T06:12:25.029Z,17.40
2018-08-28T06:17:29.077Z,18.00
2018-08-28T06:22:33.199Z,18.20
2018-08-28T06:27:37.265Z,18.20
2018-08-28T06:32:41.350Z,18.70
2018-08-28T06:37:45.421Z,19.20
2018-08-28T06:47:53.541Z,19.80
2018-08-28T06:58:01.522Z,20.10
2018-08-28T07:03:05.576Z,20.60
2018-08-28T07:18:17.321Z,21.80
2018-08-28T07:23:21.373Z,22.80
2018-08-28T07:28:26.438Z,23.30
2018-08-28T07:33:30.499Z,23.80
2018-08-28T07:38:34.551Z,24.20
2018-08-28T07:43:38.602Z,23.70
2018-08-28T08:03:54.216Z,21.80
2018-08-28T08:19:06.393Z,23.60
2018-08-28T08:24:11.402Z,24.10
2018-08-28T08:29:15.455Z,24.50
2018-08-28T08:34:19.569Z,24.80
2018-08-28T08:49:31.269Z,24.00
2018-08-28T08:54:35.339Z,22.90
2018-08-28T09:04:43.485Z,22.10
2018-08-28T09:09:47.581Z,21.80
2018-08-28T09:14:51.647Z,21.70
2018-08-28T09:24:59.590Z,21.10
2018-08-28T09:30:03.694Z,21.00
2018-08-28T09:35:07.853Z,20.90
2018-08-28T09:40:12.793Z,21.00
2018-08-28T09:45:17.129Z,21.00
2018-08-28T09:50:21.289Z,20.80
2018-08-28T09:55:25.299Z,20.80
2018-08-28T10:00:29.925Z,21.10
2018-08-28T10:05:34.843Z,21.30
2018-08-28T10:10:38.958Z,21.70
2018-08-28T10:15:43.049Z,22.30
2018-08-28T10:20:47.142Z,22.80
2018-08-28T10:25:51.183Z,22.40
2018-08-28T10:30:55.253Z,22.40
2018-08-28T10:35:59.298Z,22.80
2018-08-28T10:41:03.389Z,22.50
2018-08-28T10:46:07.685Z,22.90
2018-08-28T10:51:11.718Z,22.80
2018-08-28T10:56:15.798Z,22.60
2018-08-28T11:01:19.863Z,22.10
2018-08-28T11:06:23.924Z,21.80
2018-08-28T11:11:27.968Z,22.00
2018-08-28T11:16:32.039Z,21.90
2018-08-28T11:31:43.772Z,22.30
2018-08-28T11:36:47.829Z,21.90
2018-08-28T11:46:55.865Z,22.20
2018-08-28T11:51:59.905Z,22.40
2018-08-28T11:57:03.985Z,22.40
2018-08-28T12:02:08.142Z,22.60
2018-08-28T12:07:12.217Z,22.70
2018-08-28T12:12:17.213Z,22.80
2018-08-28T12:17:21.270Z,22.60
2018-08-28T12:32:32.940Z,22.70
2018-08-28T12:37:37.027Z,22.80
2018-08-28T12:42:41.077Z,22.90
2018-08-28T12:47:45.150Z,22.90
2018-08-28T12:52:49.231Z,22.90
2018-08-28T13:02:57.106Z,23.10
2018-08-28T13:08:01.183Z,23.20
2018-08-28T13:13:05.250Z,23.20
2018-08-28T13:33:21.094Z,23.10
2018-08-28T13:43:29.858Z,23.40
2018-08-28T13:48:33.947Z,23.40
2018-08-28T13:58:41.864Z,23.40
2018-08-28T14:03:45.976Z,23.30
2018-08-28T14:08:50.041Z,23.50
2018-08-28T14:13:54.345Z,23.60
2018-08-28T14:18:58.414Z,23.70
2018-08-28T14:24:03.071Z,23.60
2018-08-28T14:29:07.138Z,23.60
2018-08-28T14:34:11.190Z,23.80
2018-08-28T14:44:20.144Z,23.80
2018-08-28T14:49:24.208Z,23.90
2018-08-28T14:54:28.266Z,23.90
2018-08-28T14:59:32.322Z,23.90
2018-08-28T15:04:36.438Z,23.80
2018-08-28T15:09:40.573Z,23.90
2018-08-28T15:14:44.625Z,24.00
2018-08-28T15:19:48.771Z,24.10
2018-08-28T15:29:56.849Z,24.00
2018-08-28T15:45:08.605Z,24.10
2018-08-28T16:05:24.295Z,24.20
2018-08-28T16:15:32.249Z,24.20
2018-08-28T16:25:40.222Z,24.10
2018-08-28T16:30:44.246Z,24.10
2018-08-28T16:40:52.096Z,24.20
2018-08-28T16:45:56.145Z,24.00
2018-08-28T16:51:00.198Z,24.00
2018-08-28T16:56:04.241Z,24.00
2018-08-28T17:11:15.946Z,24.00
2018-08-28T17:21:23.830Z,23.80
2018-08-28T17:26:27.865Z,23.70
2018-08-28T17:31:31.955Z,23.60
2018-08-28T17:36:35.982Z,23.40
2018-08-28T17:41:40.138Z,23.30
2018-08-28T17:51:48.495Z,23.00
2018-08-28T18:07:00.241Z,22.60
2018-08-28T18:17:08.170Z,22.30
2018-08-28T18:27:15.993Z,21.90
2018-08-28T18:32:20.042Z,21.70
2018-08-28T18:37:24.196Z,21.60
2018-08-28T18:42:28.274Z,21.40
2018-08-28T18:52:36.090Z,21.20
2018-08-28T18:57:40.157Z,21.10
2018-08-28T19:02:44.302Z,20.90
2018-08-28T19:22:59.849Z,20.50
2018-08-28T19:28:03.913Z,20.30
2018-08-28T19:33:07.982Z,20.20
2018-08-28T19:38:12.087Z,20.10
2018-08-28T19:43:16.186Z,20.00
2018-08-28T19:53:24.112Z,19.80
2018-08-28T19:58:28.940Z,19.70
2018-08-28T20:03:33.572Z,19.70
2018-08-28T20:23:48.982Z,19.50
2018-08-28T20:28:53.009Z,19.50
2018-08-28T20:39:00.923Z,19.20
2018-08-28T20:49:09.334Z,19.10
2018-08-28T20:59:17.425Z,19.10
2018-08-28T21:04:21.482Z,19.10
2018-08-28T21:09:25.586Z,19.00
2018-08-28T21:14:29.643Z,19.00
2018-08-28T21:19:33.706Z,19.00
2018-08-28T21:24:37.780Z,18.90
2018-08-28T21:34:45.646Z,18.90
2018-08-28T21:39:49.705Z,18.70
2018-08-28T21:44:53.833Z,18.60
2018-08-28T21:51:26.989Z,18.50
2018-08-28T21:56:31.037Z,18.50
2018-08-28T22:01:35.076Z,18.40
2018-08-28T22:11:49.089Z,18.30
2018-08-28T22:16:53.151Z,18.30
2018-08-28T22:21:57.193Z,18.20
2018-08-28T22:27:01.203Z,18.10
2018-08-28T22:32:05.208Z,18.20
2018-08-28T22:42:13.005Z,18.20
2018-08-28T22:47:17.033Z,18.10
2018-08-28T22:52:21.056Z,18.00
2018-08-28T22:57:25.098Z,17.80
2018-08-28T23:02:29.089Z,17.60
2018-08-28T23:12:36.861Z,17.30
2018-08-28T23:17:40.934Z,17.30
2018-08-28T23:22:44.913Z,17.20
2018-08-28T23:27:48.892Z,17.30
2018-08-28T23:37:57.598Z,17.10
2018-08-28T23:48:05.392Z,17.00
2018-08-28T23:53:09.399Z,16.80
2018-08-28T23:58:13.439Z,16.80
